Time;durP1;ratioP1;P1;durP2;ratioP2;P2;SDS_P1;SDS_P2;PMS_P1;PMS_P2;Temp;Humidity;BMP_temperature;BMP_pressure;BME280_temperature;BME280_humidity;BME280_pressure;Samples;Min_cycle;Max_cycle;Signal;HPM_P1;HPM_P2
2021/01/26 00:00:53;;;;;;;17.63;8.90;;;1.10;99.90;;;;;;5059270;28;20552;-83
2021/01/26 00:03:22;;;;;;;17.63;10.80;;;0.80;99.90;;;;;;5057626;28;21005;-83
2021/01/26 00:05:48;;;;;;;14.30;9.33;;;0.70;99.90;;;;;;5026395;28;20633;-83
2021/01/26 00:08:15;;;;;;;18.47;10.70;;;0.60;99.90;;;;;;5059591;28;20399;-83
2021/01/26 00:10:40;;;;;;;18.77;12.43;;;0.60;99.90;;;;;;5060611;28;20429;-83
2021/01/26 00:13:07;;;;;;;18.17;11.57;;;0.90;99.90;;;;;;5065288;28;20452;-83
2021/01/26 00:15:34;;;;;;;16.40;12.10;;;1.10;99.90;;;;;;5076098;28;20199;-81
2021/01/26 00:18:00;;;;;;;20.57;12.10;;;1.30;99.90;;;;;;5068642;28;20557;-82
2021/01/26 00:20:26;;;;;;;12.20;10.07;;;1.10;99.90;;;;;;5060955;28;20522;-82
2021/01/26 00:22:52;;;;;;;13.43;9.60;;;0.90;99.90;;;;;;5060639;28;20402;-82
2021/01/26 00:25:37;;;;;;;20.77;12.27;;;1.10;99.90;;;;;;5061234;28;20449;-83
2021/01/26 00:28:05;;;;;;;13.43;10.77;;;1.30;99.90;;;;;;5044659;28;20464;-83
2021/01/26 00:30:33;;;;;;;21.70;11.13;;;1.30;99.90;;;;;;5063075;28;20588;-82
2021/01/26 00:33:02;;;;;;;17.30;11.80;;;1.50;99.90;;;;;;5086260;28;20484;-83
2021/01/26 00:35:29;;;;;;;18.57;11.90;;;1.50;99.90;;;;;;5084113;28;20368;-82
2021/01/26 00:37:58;;;;;;;11.07;9.43;;;1.70;99.90;;;;;;5083225;28;20402;-83
2021/01/26 00:40:24;;;;;;;24.00;9.90;;;1.60;99.90;;;;;;5089514;28;20484;-82
2021/01/26 00:42:50;;;;;;;13.90;10.70;;;1.60;99.90;;;;;;5105856;28;20400;-83
2021/01/26 00:45:19;;;;;;;10.90;8.07;;;1.60;99.90;;;;;;5105184;28;20486;-81
2021/01/26 00:47:46;;;;;;;14.37;9.87;;;1.60;99.90;;;;;;5104843;28;20220;-83
2021/01/26 00:50:14;;;;;;;10.17;7.10;;;1.50;99.90;;;;;;5101416;28;20535;-83
2021/01/26 00:52:39;;;;;;;12.80;8.67;;;1.50;99.90;;;;;;5083904;28;20411;-82
2021/01/26 00:55:07;;;;;;;14.77;8.13;;;1.60;99.90;;;;;;5083624;28;20409;-83
2021/01/26 00:57:37;;;;;;;11.97;7.23;;;1.60;99.90;;;;;;5081536;28;20269;-82
2021/01/26 01:05:09;;;;;;;9.67;8.30;;;1.00;99.90;;;;;;4998523;28;20454;-83
2021/01/26 01:07:35;;;;;;;12.70;9.57;;;1.10;99.90;;;;;;5000746;28;20408;-83
2021/01/26 01:10:00;;;;;;;10.30;8.77;;;1.30;99.90;;;;;;5000239;28;20490;-82
2021/01/26 01:12:26;;;;;;;17.33;9.20;;;1.30;99.90;;;;;;5000111;28;20393;-82
2021/01/26 01:14:52;;;;;;;13.93;8.27;;;1.30;99.90;;;;;;5000102;28;20173;-82
2021/01/26 01:17:18;;;;;;;10.73;7.27;;;1.40;99.90;;;;;;5000242;28;20610;-83
2021/01/26 01:19:43;;;;;;;13.13;9.03;;;1.30;99.90;;;;;;5000203;28;20274;-83
2021/01/26 01:22:09;;;;;;;14.90;8.67;;;1.50;99.90;;;;;;5000501;28;20166;-82
2021/01/26 01:24:35;;;;;;;8.37;6.93;;;1.50;99.90;;;;;;5000560;28;20221;-83
2021/01/26 01:27:01;;;;;;;10.53;8.20;;;1.50;99.90;;;;;;5000057;28;20661;-83
2021/01/26 01:29:31;;;;;;;15.90;8.43;;;1.50;99.90;;;;;;4999038;28;20185;-84
2021/01/26 01:31:58;;;;;;;12.67;8.33;;;1.30;99.90;;;;;;4999751;28;20172;-83
2021/01/26 01:34:23;;;;;;;14.80;9.23;;;1.40;99.90;;;;;;5000057;28;20798;-83
2021/01/26 01:36:49;;;;;;;11.77;8.03;;;1.40;99.90;;;;;;4999935;28;20432;-83
2021/01/26 01:39:15;;;;;;;10.60;6.43;;;1.40;99.90;;;;;;5009743;28;20163;-83
2021/01/26 01:41:41;;;;;;;8.67;7.70;;;1.40;99.90;;;;;;5026384;28;20616;-84
2021/01/26 01:44:07;;;;;;;10.60;8.20;;;1.40;99.90;;;;;;5023050;28;20185;-83
2021/01/26 01:46:42;;;;;;;14.70;8.60;;;0.90;99.90;;;;;;5003470;28;20235;-84
2021/01/26 01:49:14;;;;;;;9.73;7.27;;;0.70;99.90;;;;;;5021828;28;20396;-84
2021/01/26 01:51:42;;;;;;;10.97;6.30;;;0.60;99.90;;;;;;5021922;28;20401;-84
2021/01/26 01:54:15;;;;;;;9.83;6.10;;;0.60;99.90;;;;;;5014705;28;20399;-84
2021/01/26 01:56:53;;;;;;;10.40;6.97;;;0.60;99.90;;;;;;5023685;28;20393;-83
2021/01/26 01:59:24;;;;;;;9.67;6.13;;;0.60;99.90;;;;;;5036526;28;20422;-79
2021/01/26 02:01:51;;;;;;;9.83;6.10;;;0.60;99.90;;;;;;5022431;28;20885;-82
2021/01/26 02:04:21;;;;;;;12.03;7.00;;;0.60;99.90;;;;;;5003703;28;20523;-82
2021/01/26 02:06:53;;;;;;;9.50;7.50;;;0.70;99.90;;;;;;5000763;28;20862;-84
2021/01/26 02:09:27;;;;;;;9.20;7.93;;;0.60;99.90;;;;;;5000546;28;20424;-84
2021/01/26 02:11:53;;;;;;;7.27;6.57;;;0.30;99.90;;;;;;4943498;29;20429;-84
2021/01/26 02:14:19;;;;;;;6.33;5.63;;;0.10;99.90;;;;;;4971768;28;20433;-83
2021/01/26 02:17:00;;;;;;;10.20;7.13;;;0.30;99.90;;;;;;4962443;28;20257;-84
2021/01/26 02:20:04;;;;;;;9.93;7.23;;;0.50;99.90;;;;;;4979183;28;20421;-83
2021/01/26 02:23:09;;;;;;;11.30;6.77;;;0.70;99.90;;;;;;4978445;28;20426;-83
2021/01/26 02:26:02;;;;;;;10.63;5.83;;;0.90;99.90;;;;;;4978449;28;20484;-83
2021/01/26 02:28:52;;;;;;;9.13;6.37;;;0.90;99.90;;;;;;4978429;28;20430;-83
2021/01/26 02:31:39;;;;;;;7.50;6.10;;;0.70;99.90;;;;;;4970125;28;20796;-81
2021/01/26 02:34:40;;;;;;;9.70;5.87;;;0.60;99.90;;;;;;4959320;29;20395;-84
2021/01/26 02:37:45;;;;;;;9.37;7.83;;;0.80;99.90;;;;;;4991423;28;20425;-84
2021/01/26 02:40:23;;;;;;;8.47;6.80;;;0.70;99.90;;;;;;4998103;28;20424;-83
2021/01/26 02:43:03;;;;;;;6.93;5.43;;;0.80;99.90;;;;;;4978966;28;20402;-82
2021/01/26 02:45:47;;;;;;;6.80;6.20;;;0.50;99.90;;;;;;4979036;28;20905;-82
2021/01/26 02:48:35;;;;;;;10.00;6.43;;;0.40;99.90;;;;;;4979286;28;20399;-83
2021/01/26 02:51:30;;;;;;;11.10;8.10;;;0.50;99.90;;;;;;4990063;28;20413;-82
2021/01/26 02:54:05;;;;;;;14.27;6.73;;;0.50;99.90;;;;;;5018059;28;20415;-83
2021/01/26 02:56:50;;;;;;;11.63;8.17;;;0.60;99.90;;;;;;5016552;28;20400;-83
2021/01/26 02:59:55;;;;;;;10.90;7.20;;;0.50;99.90;;;;;;5017576;28;20409;-82
2021/01/26 03:02:48;;;;;;;6.90;5.20;;;0.40;99.90;;;;;;5015915;28;20908;-81
2021/01/26 03:05:21;;;;;;;9.33;6.43;;;0.50;99.90;;;;;;5017795;28;20503;-82
2021/01/26 03:07:54;;;;;;;6.83;5.27;;;0.30;99.90;;;;;;5018152;28;20408;-84
2021/01/26 03:10:23;;;;;;;8.00;5.40;;;0.40;99.90;;;;;;5018455;28;20401;-83
2021/01/26 03:12:57;;;;;;;4.43;4.03;;;0.30;99.90;;;;;;4998814;28;20437;-83
2021/01/26 03:15:38;;;;;;;8.80;7.90;;;0.10;99.90;;;;;;5003791;28;20463;-83
2021/01/26 03:18:07;;;;;;;7.33;5.20;;;0.40;99.90;;;;;;5013350;28;20397;-83
2021/01/26 03:20:50;;;;;;;11.97;7.40;;;0.00;99.90;;;;;;5010720;28;20405;-84
2021/01/26 03:23:26;;;;;;;6.97;6.17;;;0.20;99.90;;;;;;5004435;28;20408;-84
2021/01/26 03:25:53;;;;;;;7.37;6.00;;;0.20;99.90;;;;;;5010665;28;20448;-83
2021/01/26 03:28:23;;;;;;;6.77;5.60;;;0.20;99.90;;;;;;5007119;28;20744;-83
2021/01/26 03:30:52;;;;;;;9.60;7.10;;;0.00;99.90;;;;;;5000062;28;20869;-83
2021/01/26 03:33:26;;;;;;;10.97;7.63;;;0.20;99.90;;;;;;5017081;28;20455;-83
2021/01/26 03:35:52;;;;;;;7.53;5.40;;;0.20;99.90;;;;;;5016869;28;20761;-83
2021/01/26 03:38:22;;;;;;;11.30;9.00;;;0.20;99.90;;;;;;5016534;28;20408;-81
2021/01/26 03:40:50;;;;;;;7.70;6.93;;;0.30;99.90;;;;;;5016474;28;20166;-82
2021/01/26 03:43:16;;;;;;;11.40;7.30;;;0.40;99.90;;;;;;4996957;28;20455;-83
2021/01/26 03:45:43;;;;;;;13.07;7.87;;;0.40;99.90;;;;;;4997246;28;20479;-83
2021/01/26 03:48:28;;;;;;;7.20;6.50;;;0.30;99.90;;;;;;4980742;28;20410;-82
2021/01/26 03:51:07;;;;;;;17.50;7.60;;;0.40;99.90;;;;;;4977418;28;20460;-82
2021/01/26 03:53:47;;;;;;;6.77;6.07;;;0.60;99.90;;;;;;4995749;28;20413;-83
2021/01/26 03:56:25;;;;;;;14.90;8.30;;;0.60;99.90;;;;;;4997111;28;20436;-83
2021/01/26 03:59:22;;;;;;;8.90;7.23;;;0.60;99.90;;;;;;4997108;28;20393;-83
2021/01/26 04:02:02;;;;;;;9.93;7.03;;;0.70;99.90;;;;;;4978212;28;20757;-82
2021/01/26 04:04:39;;;;;;;9.77;8.77;;;0.40;99.90;;;;;;4994128;28;20562;-83
2021/01/26 04:07:17;;;;;;;6.23;4.90;;;0.60;99.90;;;;;;4995313;28;20409;-82
2021/01/26 04:09:50;;;;;;;10.03;7.77;;;0.60;99.90;;;;;;4994923;28;20487;-83
2021/01/26 04:12:21;;;;;;;10.80;7.90;;;0.40;99.90;;;;;;4995238;28;20475;-83
2021/01/26 04:15:09;;;;;;;12.30;9.83;;;0.50;99.90;;;;;;4988935;28;20417;-83
2021/01/26 04:17:39;;;;;;;12.80;8.57;;;0.50;99.90;;;;;;4995511;28;20801;-83
2021/01/26 04:20:17;;;;;;;14.60;9.13;;;0.70;99.90;;;;;;4999189;28;20437;-83
2021/01/26 04:22:44;;;;;;;9.77;8.80;;;0.80;99.90;;;;;;4999596;28;20421;-83
2021/01/26 04:25:41;;;;;;;13.70;7.97;;;0.60;99.90;;;;;;4998858;28;20491;-83
2021/01/26 04:28:14;;;;;;;14.80;8.67;;;0.90;99.90;;;;;;4998961;28;20399;-83
2021/01/26 04:30:40;;;;;;;10.93;8.00;;;0.70;99.90;;;;;;4999880;28;20500;-84
2021/01/26 04:33:11;;;;;;;13.50;7.93;;;0.60;99.90;;;;;;5008362;28;20414;-83
2021/01/26 04:35:37;;;;;;;20.20;10.43;;;0.60;99.90;;;;;;5000064;28;20401;-83
2021/01/26 04:38:03;;;;;;;11.93;7.40;;;0.70;99.90;;;;;;4998806;28;20408;-83
2021/01/26 04:40:32;;;;;;;12.60;8.50;;;0.80;99.90;;;;;;4996467;28;20393;-83
2021/01/26 04:43:20;;;;;;;13.00;10.33;;;0.70;99.90;;;;;;4998255;28;20854;-82
2021/01/26 04:46:17;;;;;;;14.70;9.87;;;0.60;99.90;;;;;;4991385;28;20885;-83
2021/01/26 04:49:17;;;;;;;16.37;8.97;;;0.60;99.90;;;;;;4996107;28;20817;-84
2021/01/26 04:51:57;;;;;;;11.30;6.97;;;0.40;99.90;;;;;;4997038;28;20424;-83
2021/01/26 04:54:43;;;;;;;13.57;7.40;;;0.50;99.90;;;;;;5008707;28;20790;-84
2021/01/26 04:57:33;;;;;;;9.00;7.20;;;0.50;99.90;;;;;;5016607;28;20411;-83
2021/01/26 05:00:39;;;;;;;10.03;7.43;;;0.30;99.90;;;;;;5016673;28;20401;-83
2021/01/26 05:03:34;;;;;;;7.23;6.57;;;0.50;99.90;;;;;;5015145;28;20820;-83
2021/01/26 05:06:04;;;;;;;7.97;6.90;;;0.80;99.90;;;;;;5000697;28;20439;-83
2021/01/26 05:08:35;;;;;;;6.77;6.10;;;0.60;99.90;;;;;;5000166;28;20401;-83
2021/01/26 05:11:14;;;;;;;6.67;5.07;;;0.60;99.90;;;;;;4999839;28;20398;-83
2021/01/26 05:13:44;;;;;;;15.50;7.60;;;0.80;99.90;;;;;;5005074;28;20947;-83
2021/01/26 05:16:18;;;;;;;9.87;6.60;;;0.70;99.90;;;;;;5019722;28;20393;-83
2021/01/26 05:18:53;;;;;;;10.40;6.67;;;0.80;99.90;;;;;;5019529;28;20387;-83
2021/01/26 05:21:29;;;;;;;8.60;7.70;;;0.80;99.90;;;;;;5002580;28;20790;-83
2021/01/26 05:24:01;;;;;;;7.80;5.50;;;0.80;99.90;;;;;;5018456;28;20594;-83
2021/01/26 05:26:27;;;;;;;10.90;8.70;;;1.10;99.90;;;;;;5020078;28;20405;-83
2021/01/26 05:28:53;;;;;;;12.90;7.43;;;1.20;99.90;;;;;;5021608;28;20885;-83
2021/01/26 05:31:26;;;;;;;10.20;8.33;;;1.30;99.90;;;;;;5021262;28;20158;-83
2021/01/26 05:33:59;;;;;;;12.77;7.90;;;1.20;99.90;;;;;;5013468;28;20177;-83
2021/01/26 05:36:25;;;;;;;8.73;6.57;;;1.30;99.90;;;;;;5000746;28;20397;-83
2021/01/26 05:38:51;;;;;;;12.13;6.70;;;1.20;99.90;;;;;;4999354;28;20489;-83
2021/01/26 05:41:19;;;;;;;7.77;6.50;;;1.30;99.90;;;;;;5000285;28;20181;-83
2021/01/26 05:43:45;;;;;;;9.80;7.97;;;1.20;99.90;;;;;;5004636;28;20419;-83
2021/01/26 05:46:32;;;;;;;9.50;6.67;;;0.90;99.90;;;;;;5020065;28;20371;-84
2021/01/26 05:48:58;;;;;;;7.83;6.50;;;1.20;99.90;;;;;;5020068;28;20401;-83
2021/01/26 05:51:26;;;;;;;8.43;5.30;;;1.10;99.90;;;;;;5018751;28;20389;-83
2021/01/26 05:53:58;;;;;;;11.10;6.50;;;0.90;99.90;;;;;;5014666;28;20201;-83
2021/01/26 05:56:24;;;;;;;9.63;5.63;;;1.00;99.90;;;;;;5000445;28;20394;-83
2021/01/26 05:58:50;;;;;;;8.30;6.47;;;1.20;99.90;;;;;;4999360;28;20529;-83
2021/01/26 06:01:27;;;;;;;5.77;5.20;;;1.20;99.90;;;;;;4998951;28;20448;-83
2021/01/26 06:04:14;;;;;;;9.10;6.00;;;1.40;99.90;;;;;;4998964;28;20488;-83
2021/01/26 06:06:55;;;;;;;5.93;5.17;;;1.50;99.90;;;;;;4998436;28;20414;-83
2021/01/26 06:09:35;;;;;;;8.93;6.60;;;1.60;99.90;;;;;;4999609;28;20898;-83
2021/01/26 06:12:12;;;;;;;7.37;5.50;;;1.60;99.90;;;;;;5000351;28;20413;-82
2021/01/26 06:14:39;;;;;;;5.93;4.97;;;1.50;99.90;;;;;;5000354;28;20417;-82
2021/01/26 06:17:12;;;;;;;9.03;6.20;;;1.70;99.90;;;;;;5000715;28;20452;-84
2021/01/26 06:19:38;;;;;;;10.57;6.27;;;1.40;99.90;;;;;;5001099;28;20409;-84
2021/01/26 06:22:05;;;;;;;8.90;5.57;;;1.30;99.90;;;;;;4999964;28;20460;-84
2021/01/26 06:24:34;;;;;;;8.50;6.23;;;1.40;99.90;;;;;;5009102;28;20448;-83
2021/01/26 06:27:24;;;;;;;10.30;6.70;;;1.40;99.90;;;;;;5018785;28;20425;-83
2021/01/26 06:30:14;;;;;;;9.43;6.57;;;1.60;99.90;;;;;;5017511;28;20703;-83
2021/01/26 06:33:14;;;;;;;9.93;6.10;;;1.70;99.90;;;;;;5003484;28;20936;-83
2021/01/26 06:35:55;;;;;;;8.13;6.53;;;1.80;99.90;;;;;;5018465;28;20413;-82
2021/01/26 06:38:49;;;;;;;7.63;4.83;;;1.90;99.90;;;;;;5018690;28;20405;-83
2021/01/26 06:41:33;;;;;;;6.27;5.77;;;1.80;99.90;;;;;;5003548;28;20433;-83
2021/01/26 06:44:15;;;;;;;6.90;6.20;;;1.70;99.90;;;;;;5004213;28;20455;-83
2021/01/26 06:47:15;;;;;;;5.10;4.60;;;1.80;99.90;;;;;;5019478;28;20412;-83
2021/01/26 06:50:04;;;;;;;9.83;4.33;;;1.70;99.90;;;;;;5020947;28;20384;-83
2021/01/26 06:52:49;;;;;;;11.80;7.13;;;1.70;99.90;;;;;;5001548;28;20516;-83
2021/01/26 06:55:31;;;;;;;5.30;4.70;;;1.70;99.90;;;;;;5004308;28;20440;-84
2021/01/26 06:58:31;;;;;;;7.60;5.33;;;1.70;99.90;;;;;;5003336;28;20401;-83
2021/01/26 07:01:24;;;;;;;6.17;4.90;;;1.80;99.90;;;;;;5005758;28;20429;-84
2021/01/26 07:04:26;;;;;;;7.27;4.63;;;1.80;99.90;;;;;;5014108;28;20486;-83
2021/01/26 07:07:16;;;;;;;6.00;3.93;;;1.80;99.90;;;;;;5030549;28;20448;-84
2021/01/26 07:10:00;;;;;;;9.00;6.50;;;1.80;99.90;;;;;;4999004;28;20428;-83
2021/01/26 07:12:57;;;;;;;6.50;5.17;;;1.70;99.90;;;;;;4999110;28;20376;-83
2021/01/26 07:16:00;;;;;;;4.60;3.87;;;1.80;99.90;;;;;;4994826;28;20436;-83
2021/01/26 07:18:44;;;;;;;5.07;3.90;;;1.90;99.90;;;;;;5003437;28;20968;-84
2021/01/26 07:21:40;;;;;;;10.47;5.70;;;1.90;99.90;;;;;;5004927;28;20397;-84
2021/01/26 07:24:30;;;;;;;10.77;6.50;;;1.80;99.90;;;;;;5005068;28;20516;-84
2021/01/26 07:27:20;;;;;;;8.83;5.90;;;1.90;99.90;;;;;;5005570;28;20396;-84
2021/01/26 07:30:10;;;;;;;7.47;4.93;;;1.90;99.90;;;;;;5006885;28;20393;-83
2021/01/26 07:32:44;;;;;;;12.03;5.97;;;1.80;99.90;;;;;;5007716;28;20497;-84
2021/01/26 07:35:38;;;;;;;10.73;6.43;;;1.90;99.90;;;;;;5002949;28;20429;-83
2021/01/26 07:38:29;;;;;;;6.67;4.83;;;1.90;99.90;;;;;;4995389;28;20456;-83
2021/01/26 07:41:10;;;;;;;8.50;5.30;;;1.90;99.90;;;;;;5002714;28;20475;-83
2021/01/26 07:43:58;;;;;;;5.70;5.20;;;1.90;99.90;;;;;;5016660;28;20420;-84
2021/01/26 07:46:40;;;;;;;8.50;5.93;;;2.00;99.90;;;;;;5000412;28;20492;-83
2021/01/26 07:49:15;;;;;;;12.80;9.20;;;2.00;99.90;;;;;;5009932;28;20456;-83
2021/01/26 07:51:45;;;;;;;11.00;6.40;;;2.10;99.90;;;;;;5002204;28;20201;-83
2021/01/26 07:54:29;;;;;;;9.00;6.00;;;2.10;99.90;;;;;;5007045;28;20497;-82
2021/01/26 07:56:59;;;;;;;7.22;6.05;;;2.10;99.90;;;;;;5000836;28;20424;-82
2021/01/26 07:59:29;;;;;;;6.27;5.50;;;2.10;99.90;;;;;;5003883;28;20193;-83
2021/01/26 08:02:02;;;;;;;13.50;7.30;;;2.10;99.90;;;;;;4999673;28;20500;-82
2021/01/26 08:04:29;;;;;;;6.77;5.10;;;2.20;99.90;;;;;;5004074;28;20856;-83
2021/01/26 08:06:59;;;;;;;7.90;4.53;;;2.10;99.90;;;;;;4998499;28;20422;-82
2021/01/26 08:09:37;;;;;;;6.63;5.90;;;2.20;99.90;;;;;;4991283;28;20450;-82
2021/01/26 08:12:10;;;;;;;11.63;5.53;;;2.20;99.90;;;;;;4983896;28;20444;-83
2021/01/26 08:14:45;;;;;;;7.03;5.93;;;2.20;99.90;;;;;;5015797;28;20435;-82
2021/01/26 08:17:14;;;;;;;6.93;4.70;;;2.30;99.90;;;;;;5013749;28;20463;-83
2021/01/26 08:19:46;;;;;;;8.50;6.30;;;2.30;99.90;;;;;;4992627;28;20532;-82
2021/01/26 08:22:18;;;;;;;5.90;4.87;;;2.40;99.90;;;;;;4977384;28;20429;-82
2021/01/26 08:24:46;;;;;;;7.13;4.43;;;2.00;99.90;;;;;;4998841;28;20480;-82
2021/01/26 08:27:48;;;;;;;7.57;4.63;;;2.20;99.90;;;;;;4985053;28;20425;-81
2021/01/26 08:30:22;;;;;;;12.90;5.53;;;2.30;99.90;;;;;;4988682;28;20421;-83
2021/01/26 08:33:24;;;;;;;6.50;4.80;;;2.40;99.90;;;;;;4985853;28;20814;-81
2021/01/26 08:36:05;;;;;;;10.33;6.90;;;2.10;99.90;;;;;;4991554;28;20432;-83
2021/01/26 08:39:00;;;;;;;11.53;5.43;;;2.20;99.90;;;;;;4971945;28;20426;-83
2021/01/26 08:41:51;;;;;;;8.30;3.80;;;2.10;99.90;;;;;;4985531;28;20425;-83
2021/01/26 08:44:45;;;;;;;5.10;4.80;;;2.30;99.90;;;;;;4988212;28;20448;-82
2021/01/26 08:47:50;;;;;;;5.80;5.23;;;2.40;99.90;;;;;;4980764;28;20421;-83
2021/01/26 08:50:31;;;;;;;8.20;4.27;;;2.50;99.90;;;;;;4994841;28;20509;-83
2021/01/26 08:53:35;;;;;;;29.60;4.90;;;2.30;99.90;;;;;;4993330;28;20445;-81
2021/01/26 08:56:34;;;;;;;7.93;4.20;;;2.40;99.90;;;;;;4966593;28;20856;-83
2021/01/26 08:59:01;;;;;;;10.13;5.27;;;2.40;99.90;;;;;;4986521;28;20422;-81
2021/01/26 09:01:41;;;;;;;6.33;3.93;;;2.30;99.90;;;;;;4973696;28;20429;-83
2021/01/26 09:04:43;;;;;;;7.20;5.43;;;2.40;99.90;;;;;;4986052;28;20477;-83
2021/01/26 09:07:10;;;;;;;5.57;5.07;;;2.50;99.90;;;;;;4982765;28;20466;-83
2021/01/26 09:09:45;;;;;;;12.87;7.83;;;2.40;99.90;;;;;;4988827;28;20524;-83
2021/01/26 09:12:11;;;;;;;8.17;4.83;;;2.40;99.90;;;;;;4986943;28;20431;-81
2021/01/26 09:14:48;;;;;;;4.63;4.23;;;2.40;99.90;;;;;;4988416;28;20429;-82
2021/01/26 09:17:26;;;;;;;8.27;6.63;;;2.50;99.90;;;;;;4996710;28;20868;-82
2021/01/26 09:19:55;;;;;;;6.47;5.10;;;2.60;99.90;;;;;;4987382;28;20461;-82
2021/01/26 09:22:27;;;;;;;9.93;4.50;;;2.50;99.90;;;;;;5001677;28;20445;-82
2021/01/26 09:25:01;;;;;;;6.97;6.07;;;2.60;99.90;;;;;;4996605;28;20457;-82
2021/01/26 09:27:32;;;;;;;5.83;5.33;;;2.60;99.90;;;;;;5009869;28;20392;-82
2021/01/26 09:30:09;;;;;;;7.25;5.03;;;2.60;99.90;;;;;;5007281;28;20443;-83
2021/01/26 09:32:38;;;;;;;16.93;6.03;;;2.70;99.90;;;;;;4998599;28;20293;-82
2021/01/26 09:35:11;;;;;;;12.27;7.50;;;2.80;99.90;;;;;;4989963;28;20446;-82
2021/01/26 09:37:37;;;;;;;8.80;5.07;;;2.90;99.90;;;;;;4999760;28;20497;-82
2021/01/26 09:40:09;;;;;;;5.17;4.07;;;2.70;99.90;;;;;;5000169;28;20448;-82
2021/01/26 09:42:35;;;;;;;13.23;5.03;;;2.70;99.90;;;;;;4996891;28;20483;-82
2021/01/26 09:45:05;;;;;;;6.10;4.57;;;2.80;99.90;;;;;;4999614;28;20464;-82
2021/01/26 09:47:31;;;;;;;7.53;4.50;;;2.90;99.90;;;;;;4988576;28;20441;-83
2021/01/26 09:50:09;;;;;;;6.93;3.23;;;3.00;99.90;;;;;;4991287;28;20443;-82
2021/01/26 09:52:36;;;;;;;9.70;4.30;;;2.80;99.90;;;;;;4994053;28;20433;-83
2021/01/26 09:55:12;;;;;;;6.83;4.13;;;2.90;99.90;;;;;;4995140;28;20545;-82
2021/01/26 09:57:39;;;;;;;5.17;4.20;;;2.80;99.90;;;;;;4996919;28;20970;-81
2021/01/26 10:00:12;;;;;;;4.03;3.67;;;3.00;99.90;;;;;;4994750;28;20437;-80
2021/01/26 10:02:40;;;;;;;4.73;4.30;;;3.00;99.90;;;;;;5002864;28;20752;-83
2021/01/26 10:05:10;;;;;;;4.53;3.27;;;2.90;99.90;;;;;;5007344;28;20639;-83
2021/01/26 10:07:35;;;;;;;3.77;3.47;;;3.00;99.90;;;;;;5012942;28;20460;-83
2021/01/26 10:10:27;;;;;;;8.50;4.40;;;3.10;99.90;;;;;;5012286;28;20433;-80
2021/01/26 10:12:53;;;;;;;7.57;2.80;;;2.90;99.90;;;;;;5005885;28;20197;-83
2021/01/26 10:15:34;;;;;;;5.03;4.03;;;3.00;99.90;;;;;;5000250;28;20417;-82
2021/01/26 10:18:08;;;;;;;2.60;2.40;;;2.70;99.90;;;;;;4979033;28;20232;-83
2021/01/26 10:20:38;;;;;;;4.57;2.87;;;2.90;99.90;;;;;;4985412;28;20418;-80
2021/01/26 10:23:07;;;;;;;7.57;2.97;;;2.90;99.90;;;;;;4996340;28;20461;-81
2021/01/26 10:25:34;;;;;;;3.77;3.40;;;3.00;99.90;;;;;;5004179;28;20461;-83
2021/01/26 10:28:12;;;;;;;4.10;3.70;;;2.90;99.90;;;;;;4987390;28;20445;-83
2021/01/26 10:30:42;;;;;;;9.50;4.10;;;2.90;99.90;;;;;;4995541;28;20407;-82
2021/01/26 10:33:08;;;;;;;5.27;3.50;;;3.00;99.90;;;;;;4990790;28;20765;-82
2021/01/26 10:35:38;;;;;;;2.83;2.63;;;3.00;99.90;;;;;;4997780;28;20437;-82
2021/01/26 10:38:25;;;;;;;3.93;2.87;;;3.00;99.90;;;;;;5000605;28;20437;-83
2021/01/26 10:41:12;;;;;;;9.80;4.40;;;3.00;99.90;;;;;;4999672;28;20573;-83
2021/01/26 10:43:41;;;;;;;7.60;5.20;;;3.00;99.90;;;;;;4993387;28;20940;-83
2021/01/26 10:46:12;;;;;;;8.50;3.77;;;2.80;99.90;;;;;;4996578;28;21060;-83
2021/01/26 10:48:42;;;;;;;5.07;3.80;;;2.90;99.90;;;;;;4988189;28;20440;-82
2021/01/26 10:51:25;;;;;;;3.47;3.20;;;3.00;99.90;;;;;;4994893;28;20464;-82
2021/01/26 10:53:51;;;;;;;5.30;3.80;;;3.10;99.90;;;;;;4986777;28;20428;-82
2021/01/26 10:56:17;;;;;;;6.93;3.43;;;3.10;99.90;;;;;;4996300;28;20437;-82
2021/01/26 10:58:44;;;;;;;3.70;3.40;;;3.10;99.90;;;;;;4992056;28;20536;-82
2021/01/26 11:01:16;;;;;;;3.73;3.30;;;3.10;99.90;;;;;;4994949;28;20441;-81
2021/01/26 11:03:42;;;;;;;3.57;3.27;;;3.10;99.90;;;;;;4992190;28;20473;-81
2021/01/26 11:06:08;;;;;;;3.40;3.10;;;3.10;99.90;;;;;;4992016;28;20468;-83
2021/01/26 11:08:34;;;;;;;4.80;3.05;;;3.20;99.90;;;;;;4979649;28;20437;-83
2021/01/26 11:11:00;;;;;;;6.97;4.27;;;3.00;99.90;;;;;;4993868;28;20178;-83
2021/01/26 11:13:26;;;;;;;6.13;3.80;;;3.10;99.90;;;;;;4989397;28;20174;-80
2021/01/26 11:15:52;;;;;;;5.43;3.47;;;3.10;99.90;;;;;;4996990;28;21209;-80
2021/01/26 11:18:18;;;;;;;2.90;2.70;;;3.10;99.90;;;;;;4984292;28;20493;-80
2021/01/26 11:20:44;;;;;;;6.07;2.90;;;3.20;99.90;;;;;;4996365;28;20420;-81
2021/01/26 11:23:13;;;;;;;3.60;3.27;;;2.90;99.90;;;;;;4989866;28;20487;-80
2021/01/26 11:25:41;;;;;;;5.53;2.53;;;3.00;99.90;;;;;;4984587;28;20663;-79
2021/01/26 11:28:07;;;;;;;7.03;3.10;;;3.10;99.90;;;;;;4981663;28;20433;-80
2021/01/26 11:30:36;;;;;;;3.30;3.00;;;3.10;99.90;;;;;;4970767;28;20435;-82
2021/01/26 11:33:04;;;;;;;4.67;3.33;;;3.20;99.90;;;;;;4990302;28;20425;-82
2021/01/26 11:35:31;;;;;;;2.97;2.77;;;3.20;99.90;;;;;;4989296;28;20490;-81
2021/01/26 11:37:57;;;;;;;5.27;2.53;;;3.30;99.90;;;;;;4988832;28;20699;-79
2021/01/26 11:40:24;;;;;;;3.10;2.57;;;3.30;99.90;;;;;;4977846;28;20418;-82
2021/01/26 11:42:53;;;;;;;3.83;2.57;;;3.20;99.90;;;;;;4991130;28;20777;-83
2021/01/26 11:45:24;;;;;;;3.50;2.43;;;3.20;99.90;;;;;;4992410;28;20936;-81
2021/01/26 11:47:54;;;;;;;8.80;3.17;;;3.20;99.90;;;;;;4984593;28;20444;-79
2021/01/26 11:50:21;;;;;;;2.93;2.70;;;3.20;99.90;;;;;;4990295;28;20428;-81
2021/01/26 11:52:48;;;;;;;2.53;2.30;;;3.20;99.90;;;;;;4977862;28;20427;-80
2021/01/26 11:55:17;;;;;;;2.30;2.20;;;3.30;99.90;;;;;;4972274;28;20882;-81
2021/01/26 11:57:45;;;;;;;3.20;2.57;;;3.30;99.90;;;;;;4985602;28;20186;-82
2021/01/26 12:00:13;;;;;;;3.13;2.93;;;3.20;99.90;;;;;;4992477;28;20416;-83
2021/01/26 12:02:39;;;;;;;3.43;2.77;;;3.20;99.90;;;;;;4989232;28;20408;-83
2021/01/26 12:05:08;;;;;;;5.65;3.80;;;3.00;99.90;;;;;;4977266;28;20501;-83
2021/01/26 12:07:34;;;;;;;3.03;2.70;;;3.20;99.90;;;;;;4989995;28;20197;-83
2021/01/26 12:10:00;;;;;;;4.32;3.50;;;3.20;99.90;;;;;;4986289;28;20436;-83
2021/01/26 12:12:26;;;;;;;5.40;3.37;;;3.30;99.90;;;;;;4985758;28;20174;-84
2021/01/26 12:14:52;;;;;;;2.50;2.30;;;3.30;99.90;;;;;;4993709;28;20457;-81
2021/01/26 12:17:18;;;;;;;7.10;2.93;;;3.30;99.90;;;;;;4997150;28;20432;-83
2021/01/26 12:19:44;;;;;;;2.70;2.50;;;3.30;99.90;;;;;;4993775;28;20182;-83
2021/01/26 12:22:10;;;;;;;7.33;3.20;;;3.40;99.90;;;;;;4995149;28;20175;-83
2021/01/26 12:24:36;;;;;;;4.53;3.10;;;3.30;99.90;;;;;;4995965;28;20741;-83
2021/01/26 12:27:03;;;;;;;3.50;2.90;;;3.20;99.90;;;;;;4991464;28;20388;-83
2021/01/26 12:29:28;;;;;;;3.03;2.43;;;3.20;99.90;;;;;;4994831;28;20424;-83
2021/01/26 12:31:54;;;;;;;3.20;3.00;;;3.20;99.90;;;;;;4996312;28;20499;-83
2021/01/26 12:34:20;;;;;;;3.20;2.90;;;3.20;99.90;;;;;;4980733;28;20339;-84
2021/01/26 12:36:46;;;;;;;9.90;3.00;;;3.20;99.90;;;;;;4961951;28;20171;-83
2021/01/26 12:39:12;;;;;;;3.10;2.90;;;3.20;99.90;;;;;;4991796;28;20190;-83
2021/01/26 12:41:37;;;;;;;3.80;2.63;;;3.20;99.90;;;;;;4992505;28;20190;-83
2021/01/26 12:44:06;;;;;;;4.57;3.43;;;3.20;99.90;;;;;;4990685;28;20269;-84
2021/01/26 12:46:34;;;;;;;2.50;2.30;;;3.20;99.90;;;;;;5002335;28;20265;-83
2021/01/26 12:49:01;;;;;;;2.70;2.50;;;3.30;99.90;;;;;;5009158;28;20411;-83
2021/01/26 12:51:27;;;;;;;3.10;2.80;;;3.30;99.90;;;;;;4993997;28;20444;-80
2021/01/26 12:53:53;;;;;;;2.87;2.63;;;3.40;99.90;;;;;;5004564;28;20451;-81
2021/01/26 12:56:19;;;;;;;2.37;2.17;;;3.50;99.90;;;;;;4953363;29;20434;-81
2021/01/26 12:58:45;;;;;;;3.53;3.07;;;3.50;99.90;;;;;;4920564;29;20477;-81
2021/01/26 13:01:12;;;;;;;2.30;2.10;;;3.50;99.90;;;;;;4929811;29;20586;-82
2021/01/26 13:03:40;;;;;;;2.97;2.63;;;3.50;99.90;;;;;;4955440;29;20466;-81
2021/01/26 13:06:06;;;;;;;2.77;2.67;;;3.40;99.90;;;;;;4954274;29;20535;-83
2021/01/26 13:08:32;;;;;;;2.93;1.90;;;3.40;99.90;;;;;;4952846;29;20480;-83
2021/01/26 13:10:58;;;;;;;3.07;2.77;;;3.30;99.90;;;;;;4937207;29;20187;-83
2021/01/26 13:13:24;;;;;;;4.83;2.07;;;3.40;99.90;;;;;;4949544;29;20446;-83
2021/01/26 13:15:50;;;;;;;3.23;2.67;;;3.50;99.90;;;;;;4955078;28;20191;-82
2021/01/26 13:18:15;;;;;;;1.90;1.80;;;3.40;99.90;;;;;;4928232;29;20191;-83
2021/01/26 13:20:41;;;;;;;5.73;2.33;;;3.40;99.90;;;;;;4955213;29;20530;-81
2021/01/26 13:23:09;;;;;;;2.83;1.97;;;3.40;99.90;;;;;;4952823;28;20263;-83
2021/01/26 13:25:35;;;;;;;2.27;2.07;;;3.30;99.90;;;;;;4959216;28;20215;-82
2021/01/26 13:28:02;;;;;;;4.13;2.17;;;3.30;99.90;;;;;;4998173;28;20436;-82
2021/01/26 13:30:29;;;;;;;2.47;2.27;;;3.30;99.90;;;;;;4992889;28;20404;-82
2021/01/26 13:32:56;;;;;;;2.60;2.40;;;3.20;99.90;;;;;;4980012;28;20414;-83
2021/01/26 13:35:26;;;;;;;3.27;2.97;;;3.30;99.90;;;;;;4997884;28;20436;-83